createdAt,value
2019-04-14T00:01:47.690Z,100661.00
2019-04-14T00:04:40.286Z,100656.20
2019-04-14T00:07:08.404Z,100644.73
2019-04-14T00:09:36.479Z,100648.08
2019-04-14T00:12:07.420Z,100648.08
2019-04-14T00:14:35.748Z,100655.97
2019-04-14T00:17:06.498Z,100652.39
2019-04-14T00:19:34.932Z,100648.81
2019-04-14T00:22:03.524Z,100644.41
2019-04-14T00:24:32.050Z,100636.97
2019-04-14T00:27:00.581Z,100646.09
2019-04-14T00:29:28.790Z,100643.91
2019-04-14T00:31:58.702Z,100639.51
2019-04-14T00:35:04.432Z,100641.28
2019-04-14T00:37:40.255Z,100634.61
2019-04-14T00:40:17.231Z,100637.97
2019-04-14T00:43:13.795Z,100637.84
2019-04-14T00:45:56.075Z,100638.80
2019-04-14T00:48:25.780Z,100634.97
2019-04-14T00:50:54.065Z,100632.80
2019-04-14T00:53:22.847Z,100635.44
2019-04-14T00:55:51.153Z,100629.34
2019-04-14T00:58:19.312Z,100623.59
2019-04-14T01:00:47.460Z,100632.80
2019-04-14T01:03:16.199Z,100627.08
2019-04-14T01:05:44.185Z,100623.59
2019-04-14T01:08:12.206Z,100623.13
2019-04-14T01:10:41.192Z,100627.54
2019-04-14T01:13:12.598Z,100626.72
2019-04-14T01:15:51.222Z,100626.59
2019-04-14T01:18:12.453Z,100624.81
2019-04-14T01:20:40.684Z,100624.45
2019-04-14T01:23:08.627Z,100627.08
2019-04-14T01:25:36.826Z,100625.27
2019-04-14T01:28:05.152Z,100622.28
2019-04-14T01:30:33.168Z,100625.27
2019-04-14T01:33:01.219Z,100624.69
2019-04-14T01:35:29.273Z,100631.27
2019-04-14T01:37:57.701Z,100637.84
2019-04-14T01:40:25.586Z,100628.80
2019-04-14T01:42:54.824Z,100634.52
2019-04-14T01:45:25.215Z,100613.16
2019-04-14T01:47:53.417Z,100623.64
2019-04-14T01:50:25.647Z,100620.15
2019-04-14T01:53:07.816Z,100618.27
2019-04-14T01:55:54.805Z,100619.59
2019-04-14T01:58:27.827Z,100619.42
2019-04-14T02:01:15.376Z,100613.47
2019-04-14T02:03:54.554Z,100616.56
2019-04-14T02:06:22.764Z,100616.20
2019-04-14T02:08:52.029Z,100610.70
2019-04-14T02:11:20.653Z,100612.84
2019-04-14T02:13:48.752Z,100605.67
2019-04-14T02:16:25.916Z,100610.38
2019-04-14T02:18:47.438Z,100609.06
2019-04-14T02:21:17.250Z,100613.02
2019-04-14T02:23:45.430Z,100609.06
2019-04-14T02:26:13.468Z,100610.38
2019-04-14T02:28:41.873Z,100603.91
2019-04-14T02:31:26.406Z,100610.12
2019-04-14T02:34:09.775Z,100610.48
2019-04-14T02:36:41.689Z,100611.89
2019-04-14T02:39:08.636Z,100614.79
2019-04-14T02:41:35.744Z,100614.33
2019-04-14T02:44:24.063Z,100618.27
2019-04-14T02:46:38.437Z,100611.44
2019-04-14T02:49:08.326Z,100620.52
2019-04-14T02:51:35.042Z,100616.80
2019-04-14T02:54:10.095Z,100616.80
2019-04-14T02:56:36.906Z,100617.06
2019-04-14T03:04:05.896Z,100612.84
2019-04-14T03:06:33.594Z,100615.48
2019-04-14T03:09:07.994Z,100615.61
2019-04-14T03:11:44.426Z,100619.06
2019-04-14T03:14:11.711Z,100617.38
2019-04-14T03:17:11.113Z,100599.51
2019-04-14T03:19:58.154Z,100627.54
2019-04-14T03:23:13.277Z,100620.23
2019-04-14T03:25:34.280Z,100617.24
2019-04-14T03:31:37.541Z,100618.83
2019-04-14T03:34:18.197Z,100620.97
2019-04-14T03:41:24.209Z,100622.64
2019-04-14T03:44:03.187Z,100621.82
2019-04-14T03:46:25.380Z,100620.37
2019-04-14T03:48:58.677Z,100620.28
2019-04-14T03:53:50.873Z,100620.50
2019-04-14T03:56:31.305Z,100627.91
2019-04-14T03:58:59.903Z,100626.72
2019-04-14T04:01:28.048Z,100631.84
2019-04-14T04:03:56.409Z,100634.12
2019-04-14T04:06:24.680Z,100624.91
2019-04-14T04:08:53.121Z,100632.21
2019-04-14T04:11:21.465Z,100629.22
2019-04-14T04:13:49.900Z,100624.91
2019-04-14T04:16:35.548Z,100631.84
2019-04-14T04:19:25.130Z,100633.17
2019-04-14T04:22:12.923Z,100626.59
2019-04-14T04:24:48.254Z,100634.84
2019-04-14T04:27:33.410Z,100626.49
2019-04-14T04:30:23.667Z,100631.39
2019-04-14T04:33:04.464Z,100635.20
2019-04-14T04:35:47.885Z,100633.53
2019-04-14T04:38:38.287Z,100630.80
2019-04-14T04:41:06.425Z,100625.54
2019-04-14T04:43:36.434Z,100631.27
2019-04-14T04:46:04.902Z,100629.95
2019-04-14T04:48:32.979Z,100632.35
2019-04-14T04:51:00.908Z,100639.64
2019-04-14T04:53:28.872Z,100639.16
2019-04-14T04:55:57.006Z,100644.41
2019-04-14T04:58:26.023Z,100637.84
2019-04-14T05:00:56.028Z,100642.64
2019-04-14T05:03:25.334Z,100646.00
2019-04-14T05:09:23.069Z,100642.32
2019-04-14T05:12:10.998Z,100649.00
2019-04-14T05:14:46.424Z,100644.59
2019-04-14T05:17:15.541Z,100644.95
2019-04-14T05:19:43.635Z,100647.94
2019-04-14T05:22:14.820Z,100655.61
2019-04-14T05:24:41.817Z,100652.48
2019-04-14T05:27:10.061Z,100649.27
2019-04-14T05:29:38.616Z,100653.48
2019-04-14T05:32:06.723Z,100658.52
2019-04-14T05:34:34.789Z,100656.61
2019-04-14T05:37:02.962Z,100661.65
2019-04-14T05:39:31.375Z,100665.73
2019-04-14T05:42:06.566Z,100666.23
2019-04-14T05:44:29.732Z,100669.59
2019-04-14T05:46:57.946Z,100668.87
2019-04-14T05:49:34.827Z,100654.61
2019-04-14T05:51:56.684Z,100665.55
2019-04-14T05:54:25.230Z,100670.55
2019-04-14T05:56:53.760Z,100669.59
2019-04-14T05:59:22.202Z,100669.33
2019-04-14T06:01:51.088Z,100671.99
2019-04-14T06:04:20.040Z,100675.94
2019-04-14T06:06:48.206Z,100677.75
2019-04-14T06:09:16.245Z,100674.17
2019-04-14T06:11:44.918Z,100669.03
2019-04-14T06:14:12.887Z,100675.25
2019-04-14T06:16:40.798Z,100673.71
2019-04-14T06:19:08.731Z,100673.61
2019-04-14T06:21:36.858Z,100675.88
2019-04-14T06:24:05.015Z,100680.33
2019-04-14T06:26:34.996Z,100673.88
2019-04-14T06:29:03.790Z,100670.28
2019-04-14T06:31:53.809Z,100675.19
2019-04-14T06:34:26.595Z,100674.50
2019-04-14T06:37:13.945Z,100676.66
2019-04-14T06:39:44.539Z,100670.69
2019-04-14T06:42:12.741Z,100679.34
2019-04-14T06:44:41.300Z,100686.05
2019-04-14T06:47:09.316Z,100686.41
2019-04-14T06:49:48.412Z,100683.55
2019-04-14T06:52:08.349Z,100691.22
2019-04-14T06:54:36.302Z,100688.33
2019-04-14T06:57:04.388Z,100690.00
2019-04-14T06:59:32.495Z,100701.63
2019-04-14T07:02:01.838Z,100697.21
2019-04-14T07:04:30.106Z,100700.45
2019-04-14T07:06:57.989Z,100701.04
2019-04-14T07:09:26.080Z,100698.66
2019-04-14T07:11:54.255Z,100704.05
2019-04-14T07:14:22.482Z,100700.83
2019-04-14T07:16:51.505Z,100713.53
2019-04-14T07:19:19.642Z,100708.02
2019-04-14T07:21:47.629Z,100709.56
2019-04-14T07:24:16.524Z,100711.27
2019-04-14T07:26:44.457Z,100707.21
2019-04-14T07:29:14.710Z,100706.38
2019-04-14T07:32:09.568Z,100707.81
2019-04-14T07:34:54.573Z,100708.87
2019-04-14T07:37:47.268Z,100716.17
2019-04-14T07:40:31.274Z,100709.48
2019-04-14T07:43:25.008Z,100710.17
2019-04-14T07:46:09.910Z,100718.34
2019-04-14T07:48:46.157Z,100724.45
2019-04-14T07:51:35.069Z,100717.10
2019-04-14T07:54:07.797Z,100723.70
2019-04-14T07:57:01.096Z,100723.81
2019-04-14T07:59:57.681Z,100723.07
2019-04-14T08:02:43.761Z,100723.79
2019-04-14T08:05:22.269Z,100726.18
2019-04-14T08:07:51.092Z,100721.11
2019-04-14T08:10:19.193Z,100722.19
2019-04-14T08:12:48.460Z,100717.97
2019-04-14T08:15:16.559Z,100723.22
2019-04-14T08:17:44.574Z,100723.17
2019-04-14T08:20:13.055Z,100724.84
2019-04-14T08:22:40.962Z,100732.82
2019-04-14T08:25:09.148Z,100722.22
2019-04-14T08:27:37.166Z,100722.70
2019-04-14T08:30:06.829Z,100724.72
2019-04-14T08:32:34.777Z,100725.78
2019-04-14T08:35:02.922Z,100727.69
2019-04-14T08:37:30.845Z,100725.52
2019-04-14T08:39:58.988Z,100717.62
2019-04-14T08:42:42.734Z,100725.29
2019-04-14T08:45:35.985Z,100724.25
2019-04-14T08:48:32.739Z,100727.83
2019-04-14T08:51:04.484Z,100730.59
2019-04-14T08:53:58.858Z,100736.75
2019-04-14T08:56:41.683Z,100735.70
2019-04-14T08:59:27.884Z,100739.91
2019-04-14T09:02:04.424Z,100743.17
2019-04-14T09:04:51.810Z,100741.89
2019-04-14T09:07:29.244Z,100744.62
2019-04-14T09:10:16.571Z,100742.82
2019-04-14T09:12:45.455Z,100736.28
2019-04-14T09:15:13.539Z,100743.26
2019-04-14T09:17:41.653Z,100742.59
2019-04-14T09:20:10.276Z,100739.66
2019-04-14T09:22:38.594Z,100741.57
2019-04-14T09:25:06.672Z,100739.70
2019-04-14T09:27:34.685Z,100730.97
2019-04-14T09:30:03.783Z,100738.78
2019-04-14T09:32:31.804Z,100732.72
2019-04-14T09:34:59.648Z,100732.83
2019-04-14T09:37:27.803Z,100732.52
2019-04-14T09:39:55.874Z,100733.75
2019-04-14T09:42:23.917Z,100729.83
2019-04-14T09:44:51.768Z,100729.83
2019-04-14T09:47:19.727Z,100713.61
2019-04-14T09:49:47.781Z,100728.97
2019-04-14T09:52:16.341Z,100734.02
2019-04-14T09:54:44.351Z,100733.72
2019-04-14T09:57:12.320Z,100733.66
2019-04-14T09:59:40.983Z,100741.05
2019-04-14T10:02:08.935Z,100740.50
2019-04-14T10:04:36.956Z,100735.80
2019-04-14T10:07:05.140Z,100741.96
2019-04-14T10:09:33.239Z,100740.78
2019-04-14T10:12:02.159Z,100741.75
2019-04-14T10:14:30.122Z,100738.84
2019-04-14T10:16:58.034Z,100735.49
2019-04-14T10:19:25.911Z,100730.66
2019-04-14T10:21:53.959Z,100735.13
2019-04-14T10:24:21.942Z,100739.84
2019-04-14T10:26:49.957Z,100737.45
2019-04-14T10:29:18.069Z,100740.95
2019-04-14T10:31:46.032Z,100727.25
2019-04-14T10:34:14.002Z,100736.52
2019-04-14T10:36:41.933Z,100740.25
2019-04-14T10:39:10.040Z,100732.55
2019-04-14T10:41:38.542Z,100727.73
2019-04-14T10:44:06.768Z,100731.62
2019-04-14T10:46:34.611Z,100731.62
2019-04-14T10:49:02.702Z,100728.50
2019-04-14T10:51:34.059Z,100728.50
2019-04-14T10:54:02.615Z,100721.78
2019-04-14T10:56:30.772Z,100721.78
2019-04-14T10:58:58.911Z,100727.41
2019-04-14T11:01:26.963Z,100722.49
2019-04-14T11:03:55.015Z,100724.67
2019-04-14T11:06:33.901Z,100728.91
2019-04-14T11:09:02.055Z,100728.91
2019-04-14T11:11:30.184Z,100731.00
2019-04-14T11:13:58.209Z,100725.95
2019-04-14T11:16:26.321Z,100724.34
2019-04-14T11:18:54.335Z,100733.30
2019-04-14T11:21:22.497Z,100730.70
2019-04-14T11:23:50.517Z,100730.70
2019-04-14T11:26:18.599Z,100726.13
2019-04-14T11:28:46.650Z,100722.18
2019-04-14T11:31:16.766Z,100729.59
2019-04-14T11:34:09.767Z,100723.71
2019-04-14T11:36:56.671Z,100729.31
2019-04-14T11:39:24.770Z,100726.65
2019-04-14T11:41:53.861Z,100729.25
2019-04-14T11:44:22.033Z,100729.25
2019-04-14T11:46:50.551Z,100723.39
2019-04-14T11:49:18.661Z,100723.39
2019-04-14T11:51:55.332Z,100722.30
2019-04-14T11:54:20.235Z,100722.30
2019-04-14T11:56:48.496Z,100719.97
2019-04-14T11:59:19.071Z,100717.08
2019-04-14T12:01:59.648Z,100715.22
2019-04-14T12:04:47.581Z,100713.20
2019-04-14T12:07:33.535Z,100712.16
2019-04-14T12:10:04.535Z,100712.73
2019-04-14T12:12:32.570Z,100716.20
2019-04-14T12:15:01.263Z,100720.55
2019-04-14T12:17:29.291Z,100723.19
2019-04-14T12:19:57.456Z,100722.34
2019-04-14T12:22:25.587Z,100723.47
2019-04-14T12:24:53.484Z,100720.05
2019-04-14T12:27:21.490Z,100714.64
2019-04-14T12:29:50.091Z,100719.98
2019-04-14T12:32:18.750Z,100720.53
2019-04-14T12:34:46.751Z,100714.17
2019-04-14T12:37:14.667Z,100715.63
2019-04-14T12:39:43.595Z,100724.38
2019-04-14T12:42:23.568Z,100726.66
2019-04-14T12:45:16.984Z,100722.05
2019-04-14T12:47:53.825Z,100724.41
2019-04-14T12:50:32.024Z,100721.39
2019-04-14T12:53:00.517Z,100716.07
2019-04-14T12:55:28.542Z,100714.07
2019-04-14T12:57:59.007Z,100715.38
2019-04-14T13:00:33.115Z,100714.68
2019-04-14T13:03:01.181Z,100709.02
2019-04-14T13:05:29.277Z,100709.02
2019-04-14T13:07:57.291Z,100706.23
2019-04-14T13:10:26.482Z,100706.23
2019-04-14T13:12:54.814Z,100711.67
2019-04-14T13:15:22.868Z,100711.67
2019-04-14T13:17:51.077Z,100707.39
2019-04-14T13:20:19.086Z,100705.36
2019-04-14T13:22:47.201Z,100704.33
2019-04-14T13:25:15.268Z,100705.24
2019-04-14T13:27:43.285Z,100694.58
2019-04-14T13:30:13.930Z,100704.25
2019-04-14T13:32:42.212Z,100702.81
2019-04-14T13:35:10.427Z,100702.77
2019-04-14T13:37:40.244Z,100701.48
2019-04-14T13:40:09.043Z,100699.97
2019-04-14T13:42:37.338Z,100691.98
2019-04-14T13:45:06.167Z,100706.60
2019-04-14T13:47:34.182Z,100704.84
2019-04-14T13:50:02.156Z,100709.13
2019-04-14T13:52:31.065Z,100709.47
2019-04-14T13:54:59.473Z,100713.41
2019-04-14T13:57:27.578Z,100711.34
2019-04-14T13:59:55.534Z,100712.28
2019-04-14T14:02:23.436Z,100710.05
2019-04-14T14:04:51.379Z,100704.23
2019-04-14T14:07:19.691Z,100704.23
2019-04-14T14:09:47.807Z,100703.28
2019-04-14T14:12:47.515Z,100699.28
2019-04-14T14:15:41.111Z,100701.11
2019-04-14T14:18:26.880Z,100708.45
2019-04-14T14:21:08.911Z,100703.72
2019-04-14T14:23:59.261Z,100710.60
2019-04-14T14:26:27.936Z,100704.63
2019-04-14T14:28:56.091Z,100709.62
2019-04-14T14:31:24.341Z,100714.91
2019-04-14T14:33:52.287Z,100715.39
2019-04-14T14:36:20.863Z,100714.68
2019-04-14T14:38:48.893Z,100718.44
2019-04-14T14:41:17.455Z,100710.34
2019-04-14T14:43:45.635Z,100711.22
2019-04-14T14:46:26.679Z,100706.83
2019-04-14T14:49:02.967Z,100714.31
2019-04-14T14:51:59.445Z,100710.16
2019-04-14T14:54:27.430Z,100712.79
2019-04-14T14:56:55.364Z,100710.87
2019-04-14T14:59:23.277Z,100705.58
2019-04-14T15:01:51.357Z,100713.41
2019-04-14T15:04:19.478Z,100702.41
2019-04-14T15:06:47.649Z,100712.18
2019-04-14T15:09:15.663Z,100705.49
2019-04-14T15:11:43.890Z,100711.58
2019-04-14T15:14:11.955Z,100710.30
2019-04-14T15:16:40.147Z,100712.88
2019-04-14T15:19:08.254Z,100719.13
2019-04-14T15:21:36.320Z,100717.97
2019-04-14T15:24:04.615Z,100717.39
2019-04-14T15:26:32.562Z,100719.04
2019-04-14T15:29:00.584Z,100716.84
2019-04-14T15:31:28.651Z,100719.41
2019-04-14T15:33:56.639Z,100718.53
2019-04-14T15:36:24.612Z,100715.77
2019-04-14T15:38:52.755Z,100709.91
2019-04-14T15:41:20.834Z,100717.58
2019-04-14T15:43:49.033Z,100722.97
2019-04-14T15:46:17.051Z,100722.97
2019-04-14T15:48:45.036Z,100717.19
2019-04-14T15:51:12.971Z,100720.16
2019-04-14T15:53:41.191Z,100720.16
2019-04-14T15:56:16.215Z,100726.95
2019-04-14T15:58:52.670Z,100727.43
2019-04-14T16:01:42.979Z,100728.09
2019-04-14T16:04:27.592Z,100728.09
2019-04-14T16:07:04.917Z,100731.51
2019-04-14T16:09:55.371Z,100734.09
2019-04-14T16:12:41.615Z,100736.44
2019-04-14T16:15:18.959Z,100743.10
2019-04-14T16:17:54.328Z,100741.92
2019-04-14T16:20:28.942Z,100741.63
2019-04-14T16:22:56.946Z,100740.63
2019-04-14T16:25:39.584Z,100747.33
2019-04-14T16:28:14.156Z,100745.99
2019-04-14T16:31:01.562Z,100743.98
2019-04-14T16:33:33.871Z,100742.25
2019-04-14T16:36:01.970Z,100746.27
2019-04-14T16:38:30.023Z,100742.52
2019-04-14T16:40:58.045Z,100748.85
2019-04-14T16:43:26.534Z,100748.51
2019-04-14T16:45:54.685Z,100745.57
2019-04-14T16:48:22.636Z,100748.59
2019-04-14T16:50:50.636Z,100749.56
2019-04-14T16:53:25.329Z,100753.86
2019-04-14T16:56:10.694Z,100760.66
2019-04-14T16:58:59.973Z,100759.22
2019-04-14T17:01:36.781Z,100759.22
2019-04-14T17:04:05.410Z,100764.17
2019-04-14T17:06:33.629Z,100773.17
2019-04-14T17:09:06.728Z,100776.88
2019-04-14T17:11:34.802Z,100780.73
2019-04-14T17:14:25.357Z,100786.89
2019-04-14T17:17:06.214Z,100782.70
2019-04-14T17:19:52.406Z,100782.20
2019-04-14T17:22:28.894Z,100778.91
2019-04-14T17:25:01.779Z,100792.25
2019-04-14T17:27:37.937Z,100796.13
2019-04-14T17:30:41.496Z,100795.28
2019-04-14T17:33:27.840Z,100800.97
2019-04-14T17:36:19.485Z,100806.17
2019-04-14T17:38:57.459Z,100806.59
2019-04-14T17:41:40.051Z,100817.57
2019-04-14T17:44:19.328Z,100812.55
2019-04-14T17:47:01.085Z,100815.72
2019-04-14T17:49:41.457Z,100818.51
2019-04-14T17:52:27.407Z,100826.32
2019-04-14T17:55:17.470Z,100829.08
2019-04-14T17:57:52.833Z,100825.35
2019-04-14T18:00:32.632Z,100827.98
2019-04-14T18:03:05.219Z,100826.97
2019-04-14T18:05:52.709Z,100826.97
2019-04-14T18:08:40.236Z,100838.10
2019-04-14T18:11:26.052Z,100847.37
2019-04-14T18:13:59.850Z,100860.78
2019-04-14T18:16:34.736Z,100863.36
2019-04-14T18:19:25.013Z,100870.94
2019-04-14T18:21:53.593Z,100883.77
2019-04-14T18:24:21.381Z,100888.30
2019-04-14T18:26:49.666Z,100891.23
2019-04-14T18:29:49.274Z,100893.30
2019-04-14T18:32:31.463Z,100893.55
2019-04-14T18:35:11.546Z,100898.18
2019-04-14T18:37:57.569Z,100904.18
2019-04-14T18:40:47.664Z,100908.42
2019-04-14T18:43:33.924Z,100904.94
2019-04-14T18:46:21.554Z,100909.28
2019-04-14T18:48:58.504Z,100914.33
2019-04-14T18:51:47.593Z,100926.03
2019-04-14T18:54:23.038Z,100926.03
2019-04-14T18:57:29.172Z,100932.08
2019-04-14T19:00:08.721Z,100934.74
2019-04-14T19:02:37.195Z,100937.42
2019-04-14T19:05:05.490Z,100939.61
2019-04-14T19:07:33.566Z,100941.52
2019-04-14T19:10:01.720Z,100936.52
2019-04-14T19:12:49.138Z,100937.96
2019-04-14T19:15:35.766Z,100950.30
2019-04-14T19:18:11.747Z,100952.75
2019-04-14T19:20:42.438Z,100952.75
2019-04-14T19:23:10.576Z,100952.79
2019-04-14T19:25:38.551Z,100952.02
2019-04-14T19:28:06.580Z,100952.02
2019-04-14T19:30:34.639Z,100950.96
2019-04-14T19:33:02.632Z,100959.07
2019-04-14T19:35:30.629Z,100959.07
2019-04-14T19:37:58.594Z,100957.93
2019-04-14T19:40:26.730Z,100969.49
2019-04-14T19:42:55.232Z,100968.38
2019-04-14T19:45:23.332Z,100999.71
2019-04-14T19:47:51.292Z,100966.99
2019-04-14T19:50:19.299Z,100977.07
2019-04-14T19:52:47.324Z,100978.61
2019-04-14T19:55:20.682Z,100977.96
2019-04-14T19:57:45.922Z,100970.62
2019-04-14T20:00:14.898Z,100970.62
2019-04-14T20:02:43.765Z,100982.06
2019-04-14T20:05:13.018Z,100980.19
2019-04-14T20:07:41.901Z,100990.50
2019-04-14T20:10:10.857Z,100990.50
2019-04-14T20:12:38.863Z,100995.06
2019-04-14T20:15:11.513Z,100995.06
2019-04-14T20:17:54.881Z,100992.34
2019-04-14T20:20:58.039Z,100992.63
2019-04-14T20:23:39.560Z,100996.52
2019-04-14T20:26:35.959Z,101003.37
2019-04-14T20:29:13.279Z,101005.08
2019-04-14T20:31:54.823Z,101005.88
2019-04-14T20:34:23.067Z,101010.37
2019-04-14T20:36:52.737Z,101013.78
2019-04-14T20:39:22.415Z,101014.61
2019-04-14T20:41:50.588Z,101011.67
2019-04-14T20:44:20.438Z,101016.47
2019-04-14T20:46:48.574Z,101016.47
2019-04-14T20:49:16.967Z,101023.59
2019-04-14T20:51:46.333Z,101023.59
2019-04-14T20:54:16.137Z,101025.34
2019-04-14T20:56:45.164Z,101025.34
2019-04-14T20:59:13.330Z,101022.05
2019-04-14T21:01:47.879Z,101024.84
2019-04-14T21:04:22.218Z,101028.11
2019-04-14T21:07:08.403Z,101028.11
2019-04-14T21:09:46.331Z,101028.48
2019-04-14T21:12:33.002Z,101027.55
2019-04-14T21:15:26.504Z,101031.92
2019-04-14T21:18:19.813Z,101037.44
2019-04-14T21:21:01.996Z,101029.28
2019-04-14T21:23:55.171Z,101037.01
2019-04-14T21:26:45.822Z,101031.36
2019-04-14T21:29:29.024Z,101037.88
2019-04-14T21:32:02.600Z,101042.48
2019-04-14T21:34:48.261Z,101038.87
2019-04-14T21:37:25.846Z,101037.90
2019-04-14T21:40:06.470Z,101041.90
2019-04-14T21:42:34.488Z,101047.91
2019-04-14T21:45:02.719Z,101049.84
2019-04-14T21:47:30.649Z,101048.97
2019-04-14T21:49:58.771Z,101047.08
2019-04-14T21:52:37.043Z,101054.52
2019-04-14T21:55:05.703Z,101053.08
2019-04-14T21:57:44.888Z,101056.10
2019-04-14T22:00:38.679Z,101057.42
2019-04-14T22:03:31.312Z,101057.28
2019-04-14T22:06:05.884Z,101058.27
2019-04-14T22:08:37.750Z,101059.69
2019-04-14T22:11:07.891Z,101066.89
2019-04-14T22:13:35.792Z,101062.93
2019-04-14T22:16:04.217Z,101069.91
2019-04-14T22:18:32.142Z,101073.23
2019-04-14T22:21:00.636Z,101069.28
2019-04-14T22:23:28.498Z,101071.69
2019-04-14T22:25:56.518Z,101072.75
2019-04-14T22:28:24.454Z,101080.81
2019-04-14T22:30:53.502Z,101074.31
2019-04-14T22:33:21.540Z,101084.99
2019-04-14T22:35:49.616Z,101078.36
2019-04-14T22:38:17.666Z,101082.56
2019-04-14T22:40:45.835Z,101084.08
2019-04-14T22:43:13.868Z,101082.99
2019-04-14T22:45:41.913Z,101089.33
2019-04-14T22:48:09.917Z,101090.87
2019-04-14T22:50:37.990Z,101087.87
2019-04-14T22:53:06.003Z,101090.05
2019-04-14T22:55:34.361Z,101094.84
2019-04-14T22:58:02.245Z,101093.42
2019-04-14T23:00:49.893Z,101094.52
2019-04-14T23:03:43.312Z,101092.83
2019-04-14T23:06:29.306Z,101097.48
2019-04-14T23:09:20.212Z,101097.11
2019-04-14T23:12:13.445Z,101100.12
2019-04-14T23:14:50.545Z,101101.67
2019-04-14T23:17:25.389Z,101105.75
2019-04-14T23:20:12.871Z,101097.47
2019-04-14T23:23:00.125Z,101102.98
2019-04-14T23:25:28.299Z,101095.66
2019-04-14T23:27:56.375Z,101097.20
2019-04-14T23:30:24.265Z,101095.61
2019-04-14T23:32:52.390Z,101102.44
2019-04-14T23:35:20.364Z,101096.80
2019-04-14T23:37:48.263Z,101088.73
2019-04-14T23:40:16.398Z,101087.19
2019-04-14T23:42:44.507Z,101095.69
2019-04-14T23:45:12.971Z,101092.05
2019-04-14T23:47:41.267Z,101091.69
2019-04-14T23:50:09.396Z,101092.02
2019-04-14T23:52:39.870Z,101088.77
2019-04-14T23:55:08.511Z,101095.09
2019-04-14T23:57:37.110Z,101097.13
